Terminal Aerodrome Forecast
Issued by NWS

Home | Current Version | Previous Version | Text Only | Print | Product List | Glossary On
Versions: 1 2 3 4 5 6 7 8 9 10 11 12 13
438
FTAK31 PAJN 301124
TAFAWG
TAF
PAWG 301124Z 3012/0112 VRB04KT P6SM BKN060 BKN100
     FM302100 29006KT P6SM VCSH SCT040 OVC060
     FM010000 28008KT P6SM -SHRA BKN035 OVC050
      AMD LTD TO VIS AND WIND 3012/3015=

USA.gov is the U.S. government's official web portal to all federal, state and local government web resources and services.